Time;durP1;ratioP1;P1;durP2;ratioP2;P2;SDS_P1;SDS_P2;PMS_P1;PMS_P2;Temp;Humidity;BMP_temperature;BMP_pressure;BME280_temperature;BME280_humidity;BME280_pressure;Samples;Min_cycle;Max_cycle;Signal;HPM_P1;HPM_P2
2023/05/08 00:00:22;;;;;;;1.90;1.50;;;;;;;;;;5031892;28;20415;-85
2023/05/08 00:02:48;;;;;;;2.20;1.60;;;;;;;;;;5032022;28;20382;-83
2023/05/08 00:05:14;;;;;;;1.80;1.70;;;;;;;;;;5032054;28;20771;-85
2023/05/08 00:07:40;;;;;;;1.70;1.60;;;;;;;;;;5031852;28;20411;-84
2023/05/08 00:10:07;;;;;;;1.52;1.20;;;;;;;;;;5031072;28;20387;-85
2023/05/08 00:12:34;;;;;;;1.70;1.60;;;;;;;;;;5031641;28;20481;-84
2023/05/08 00:15:00;;;;;;;1.65;1.40;;;;;;;;;;5030308;28;20441;-83
2023/05/08 00:17:26;;;;;;;1.77;1.63;;;;;;;;;;5030160;28;20414;-84
2023/05/08 00:19:52;;;;;;;1.75;1.65;;;;;;;;;;5028616;28;20953;-84
2023/05/08 00:22:19;;;;;;;1.75;1.65;;;;;;;;;;5030158;28;20391;-84
2023/05/08 00:24:45;;;;;;;1.85;1.70;;;;;;;;;;5030010;28;20451;-84
2023/05/08 00:27:11;;;;;;;1.60;1.50;;;;;;;;;;5030533;28;20462;-83
2023/05/08 00:29:39;;;;;;;1.50;1.40;;;;;;;;;;5031462;28;20437;-83
2023/05/08 00:32:05;;;;;;;1.60;1.50;;;;;;;;;;5031680;28;20903;-84
2023/05/08 00:34:31;;;;;;;1.50;1.40;;;;;;;;;;5030396;28;20479;-85
2023/05/08 00:36:57;;;;;;;3.03;1.50;;;;;;;;;;5018072;28;20960;-83
2023/05/08 00:39:23;;;;;;;1.73;1.63;;;;;;;;;;5031461;28;20422;-84
2023/05/08 00:41:49;;;;;;;1.65;1.40;;;;;;;;;;5031488;28;20841;-84
2023/05/08 00:44:15;;;;;;;1.50;1.40;;;;;;;;;;5030284;28;20390;-83
2023/05/08 00:46:42;;;;;;;3.42;1.60;;;;;;;;;;5031718;28;20702;-84
2023/05/08 00:49:11;;;;;;;1.92;1.50;;;;;;;;;;5030231;28;20387;-84
2023/05/08 00:51:38;;;;;;;1.70;1.50;;;;;;;;;;5030841;28;20379;-84
2023/05/08 00:54:04;;;;;;;2.00;1.73;;;;;;;;;;5029871;28;20428;-85
2023/05/08 00:56:31;;;;;;;1.95;1.70;;;;;;;;;;5025810;28;20717;-85
2023/05/08 00:58:57;;;;;;;2.10;1.87;;;;;;;;;;5030614;28;20418;-84
2023/05/08 01:01:24;;;;;;;1.80;1.70;;;;;;;;;;5030640;28;20386;-84
2023/05/08 01:03:50;;;;;;;1.85;1.75;;;;;;;;;;5030966;28;20445;-84
2023/05/08 01:06:16;;;;;;;2.10;2.00;;;;;;;;;;5031226;28;20416;-84
2023/05/08 01:08:44;;;;;;;2.20;2.00;;;;;;;;;;5029603;28;20485;-84
2023/05/08 01:11:23;;;;;;;2.17;1.90;;;;;;;;;;5031119;28;20383;-84
2023/05/08 01:13:51;;;;;;;1.80;1.70;;;;;;;;;;5031107;28;20434;-84
2023/05/08 01:16:22;;;;;;;2.20;2.00;;;;;;;;;;5030551;28;20441;-83
2023/05/08 01:19:08;;;;;;;1.88;1.77;;;;;;;;;;5029646;28;20876;-84
2023/05/08 01:21:38;;;;;;;1.73;1.63;;;;;;;;;;5030709;28;20397;-84
2023/05/08 01:24:16;;;;;;;2.10;2.00;;;;;;;;;;5033928;28;20800;-84
2023/05/08 01:27:01;;;;;;;1.90;1.80;;;;;;;;;;5034439;28;20383;-84
2023/05/08 01:29:42;;;;;;;2.03;1.92;;;;;;;;;;5035262;28;20429;-85
2023/05/08 01:32:29;;;;;;;2.40;1.80;;;;;;;;;;5034766;28;20394;-84
2023/05/08 01:35:07;;;;;;;2.20;2.00;;;;;;;;;;5033728;28;20410;-84
2023/05/08 01:37:36;;;;;;;2.08;1.70;;;;;;;;;;5033599;28;20419;-84
2023/05/08 01:40:12;;;;;;;2.25;2.00;;;;;;;;;;5033790;28;20405;-85
2023/05/08 01:42:45;;;;;;;2.08;1.98;;;;;;;;;;5033065;28;20405;-84
2023/05/08 01:45:13;;;;;;;1.80;1.70;;;;;;;;;;5029994;28;20476;-85
2023/05/08 01:47:40;;;;;;;2.88;2.33;;;;;;;;;;5027988;28;20911;-84
2023/05/08 01:50:19;;;;;;;2.75;2.53;;;;;;;;;;5028882;28;20383;-84
2023/05/08 01:52:48;;;;;;;3.17;2.97;;;;;;;;;;5030615;28;20501;-84
2023/05/08 01:55:19;;;;;;;2.78;2.60;;;;;;;;;;5033141;28;20398;-85
2023/05/08 01:57:48;;;;;;;2.60;2.40;;;;;;;;;;5032289;28;20413;-84
2023/05/08 02:00:17;;;;;;;2.70;2.50;;;;;;;;;;5032300;28;20757;-85
2023/05/08 02:02:44;;;;;;;2.67;2.47;;;;;;;;;;5034000;28;20387;-84
2023/05/08 02:05:12;;;;;;;2.45;2.25;;;;;;;;;;5034357;28;20375;-85
2023/05/08 02:07:39;;;;;;;2.10;2.00;;;;;;;;;;5034222;28;20382;-84
2023/05/08 02:10:05;;;;;;;2.60;2.13;;;;;;;;;;5034295;28;20472;-85
2023/05/08 02:12:32;;;;;;;2.10;2.00;;;;;;;;;;5033165;28;20443;-85
2023/05/08 02:14:59;;;;;;;2.47;2.28;;;;;;;;;;5034205;28;20394;-84
2023/05/08 02:17:26;;;;;;;2.58;2.30;;;;;;;;;;5034157;28;20481;-84
2023/05/08 02:19:53;;;;;;;2.30;2.10;;;;;;;;;;5033946;28;20740;-85
2023/05/08 02:22:21;;;;;;;2.10;2.00;;;;;;;;;;5034123;28;20441;-85
2023/05/08 02:24:47;;;;;;;2.37;2.13;;;;;;;;;;5033960;28;20434;-84
2023/05/08 02:27:14;;;;;;;3.03;2.78;;;;;;;;;;5032762;28;20467;-84
2023/05/08 02:29:40;;;;;;;3.10;2.40;;;;;;;;;;5032481;28;20391;-84
2023/05/08 02:32:07;;;;;;;2.85;2.55;;;;;;;;;;5033882;28;20494;-84
2023/05/08 02:34:34;;;;;;;3.00;2.70;;;;;;;;;;5034069;28;20906;-84
2023/05/08 02:37:01;;;;;;;4.07;2.95;;;;;;;;;;5033880;28;20383;-84
2023/05/08 02:39:29;;;;;;;3.20;2.90;;;;;;;;;;5033660;28;20410;-85
2023/05/08 02:41:56;;;;;;;3.35;2.70;;;;;;;;;;5033625;28;20428;-84
2023/05/08 02:44:22;;;;;;;2.58;2.20;;;;;;;;;;5033747;28;20494;-84
2023/05/08 02:47:05;;;;;;;2.70;2.50;;;;;;;;;;5033535;28;20474;-85
2023/05/08 02:49:43;;;;;;;2.40;2.00;;;;;;;;;;5032323;28;20415;-84
2023/05/08 02:52:24;;;;;;;1.98;1.88;;;;;;;;;;5031698;28;20463;-84
2023/05/08 02:55:02;;;;;;;2.60;1.90;;;;;;;;;;5033149;28;20471;-85
2023/05/08 02:57:37;;;;;;;3.50;1.97;;;;;;;;;;5033093;28;20898;-84
2023/05/08 03:00:07;;;;;;;1.77;1.67;;;;;;;;;;5032788;28;20462;-84
2023/05/08 03:02:44;;;;;;;2.60;1.70;;;;;;;;;;5031376;28;20926;-84
2023/05/08 03:05:23;;;;;;;1.63;1.52;;;;;;;;;;5033313;28;20740;-84
2023/05/08 03:07:50;;;;;;;1.60;1.50;;;;;;;;;;5033237;28;20452;-84
2023/05/08 03:10:18;;;;;;;1.88;1.63;;;;;;;;;;5033286;28;20386;-85
2023/05/08 03:12:49;;;;;;;1.63;1.52;;;;;;;;;;5033167;28;20391;-84
2023/05/08 03:15:32;;;;;;;1.73;1.60;;;;;;;;;;5031129;28;20745;-84
2023/05/08 03:18:06;;;;;;;2.13;1.92;;;;;;;;;;5033104;28;20568;-84
2023/05/08 03:20:33;;;;;;;1.80;1.70;;;;;;;;;;5033055;28;20393;-84
2023/05/08 03:23:00;;;;;;;1.63;1.52;;;;;;;;;;5032739;28;20386;-85
2023/05/08 03:25:26;;;;;;;1.70;1.60;;;;;;;;;;5032964;28;20470;-84
2023/05/08 03:27:52;;;;;;;2.40;1.90;;;;;;;;;;5032797;28;20390;-84
2023/05/08 03:30:20;;;;;;;2.53;2.33;;;;;;;;;;5032764;28;20477;-85
2023/05/08 03:32:46;;;;;;;2.60;2.40;;;;;;;;;;5031304;28;20375;-84
2023/05/08 03:35:13;;;;;;;3.17;1.90;;;;;;;;;;5032179;28;20388;-84
2023/05/08 03:37:39;;;;;;;2.00;1.90;;;;;;;;;;5031428;28;20384;-84
2023/05/08 03:40:06;;;;;;;2.58;1.80;;;;;;;;;;5032538;28;20887;-85
2023/05/08 03:42:32;;;;;;;2.92;2.58;;;;;;;;;;5031626;28;20387;-84
2023/05/08 03:44:58;;;;;;;2.30;2.20;;;;;;;;;;5032067;28;20391;-85
2023/05/08 03:47:27;;;;;;;2.33;2.13;;;;;;;;;;5031479;28;20379;-85
2023/05/08 03:49:53;;;;;;;2.30;2.10;;;;;;;;;;5021151;28;20859;-85
2023/05/08 03:52:19;;;;;;;2.20;2.00;;;;;;;;;;5031739;28;20415;-85
2023/05/08 03:54:45;;;;;;;2.00;1.90;;;;;;;;;;5030896;28;20376;-84
2023/05/08 03:57:12;;;;;;;3.65;1.92;;;;;;;;;;5030433;28;20730;-84
2023/05/08 03:59:50;;;;;;;2.00;1.90;;;;;;;;;;5031417;28;20892;-84
2023/05/08 04:02:21;;;;;;;2.17;2.03;;;;;;;;;;5031426;28;20384;-85
2023/05/08 04:04:50;;;;;;;2.40;2.13;;;;;;;;;;5032116;28;20378;-84
2023/05/08 04:07:24;;;;;;;2.03;1.83;;;;;;;;;;5031971;28;20473;-85
2023/05/08 04:09:59;;;;;;;2.20;2.10;;;;;;;;;;5019066;28;20383;-86
2023/05/08 04:12:31;;;;;;;2.33;2.03;;;;;;;;;;5030730;28;20477;-85
2023/05/08 04:15:02;;;;;;;2.13;1.92;;;;;;;;;;5030236;28;20383;-85
2023/05/08 04:17:34;;;;;;;2.00;1.90;;;;;;;;;;5029998;28;20852;-84
2023/05/08 04:20:03;;;;;;;2.38;2.17;;;;;;;;;;5030157;28;20379;-85
2023/05/08 04:22:31;;;;;;;2.10;2.00;;;;;;;;;;5024576;28;20487;-85
2023/05/08 04:24:58;;;;;;;2.15;2.00;;;;;;;;;;5019442;28;20433;-85
2023/05/08 04:27:25;;;;;;;3.30;2.30;;;;;;;;;;5021635;28;20391;-85
2023/05/08 04:29:51;;;;;;;2.75;2.55;;;;;;;;;;5030614;28;20387;-85
2023/05/08 04:32:17;;;;;;;3.15;2.72;;;;;;;;;;5028839;28;20452;-86
2023/05/08 04:34:43;;;;;;;4.00;3.70;;;;;;;;;;5028038;28;20402;-86
2023/05/08 04:37:21;;;;;;;4.05;3.75;;;;;;;;;;5024128;28;20382;-85
2023/05/08 04:39:49;;;;;;;3.45;3.25;;;;;;;;;;5024806;28;20433;-85
2023/05/08 04:42:18;;;;;;;3.53;3.20;;;;;;;;;;5030469;28;20467;-86
2023/05/08 04:44:44;;;;;;;4.30;3.90;;;;;;;;;;5030499;28;20390;-85
2023/05/08 04:47:10;;;;;;;3.92;3.30;;;;;;;;;;5020295;28;20382;-86
2023/05/08 04:49:36;;;;;;;3.90;3.53;;;;;;;;;;5029387;28;20392;-86
2023/05/08 04:52:02;;;;;;;3.73;3.43;;;;;;;;;;5028748;28;20410;-86
2023/05/08 04:54:29;;;;;;;3.58;3.38;;;;;;;;;;5020076;28;20418;-86
2023/05/08 04:56:55;;;;;;;3.63;3.05;;;;;;;;;;5028233;28;20453;-86
2023/05/08 04:59:21;;;;;;;3.50;3.15;;;;;;;;;;5027865;28;20414;-86
2023/05/08 05:01:47;;;;;;;3.50;3.20;;;;;;;;;;5029631;28;20441;-85
2023/05/08 05:04:13;;;;;;;3.30;3.10;;;;;;;;;;5030428;28;20462;-86
2023/05/08 05:06:39;;;;;;;4.28;3.97;;;;;;;;;;5029850;28;20861;-86
2023/05/08 05:09:05;;;;;;;4.03;3.72;;;;;;;;;;5028696;28;20445;-86
2023/05/08 05:11:31;;;;;;;4.68;4.35;;;;;;;;;;5030093;28;20478;-85
2023/05/08 05:13:57;;;;;;;3.57;3.37;;;;;;;;;;5029954;28;20463;-85
2023/05/08 05:16:23;;;;;;;3.50;3.30;;;;;;;;;;5030096;28;20391;-85
2023/05/08 05:18:49;;;;;;;4.15;3.83;;;;;;;;;;5029908;28;20407;-84
2023/05/08 05:21:15;;;;;;;3.92;3.63;;;;;;;;;;5029684;28;20410;-86
2023/05/08 05:23:41;;;;;;;4.63;4.15;;;;;;;;;;5027343;28;20462;-86
2023/05/08 05:26:07;;;;;;;4.93;4.53;;;;;;;;;;5029039;28;20379;-85
2023/05/08 05:28:33;;;;;;;5.90;5.40;;;;;;;;;;5029101;28;20387;-85
2023/05/08 05:30:59;;;;;;;5.20;4.70;;;;;;;;;;5030223;28;20385;-86
2023/05/08 05:33:25;;;;;;;5.60;4.88;;;;;;;;;;5028604;28;20386;-86
2023/05/08 05:35:51;;;;;;;5.97;5.40;;;;;;;;;;5029382;28;20438;-84
2023/05/08 05:38:17;;;;;;;6.43;5.93;;;;;;;;;;5029759;28;20922;-85
2023/05/08 05:40:43;;;;;;;6.07;5.57;;;;;;;;;;5030665;28;20478;-84
2023/05/08 05:43:09;;;;;;;5.45;4.97;;;;;;;;;;5030156;28;20477;-85
2023/05/08 05:45:35;;;;;;;6.20;5.55;;;;;;;;;;5030357;28;20528;-84
2023/05/08 05:48:01;;;;;;;6.65;6.05;;;;;;;;;;5029131;28;20453;-84
2023/05/08 05:50:28;;;;;;;7.18;6.68;;;;;;;;;;5024179;28;20409;-85
2023/05/08 05:52:54;;;;;;;7.90;7.20;;;;;;;;;;5029371;28;20429;-85
2023/05/08 05:55:21;;;;;;;8.43;7.80;;;;;;;;;;5030041;28;20406;-85
2023/05/08 05:57:47;;;;;;;8.55;7.85;;;;;;;;;;5028369;28;20469;-85
2023/05/08 06:00:14;;;;;;;7.70;7.15;;;;;;;;;;5030127;28;20379;-87
2023/05/08 06:02:43;;;;;;;7.50;7.00;;;;;;;;;;5036304;28;20458;-86
2023/05/08 06:05:09;;;;;;;7.10;6.60;;;;;;;;;;5035475;28;20869;-85
2023/05/08 06:07:36;;;;;;;6.50;6.00;;;;;;;;;;5034949;28;20421;-87
2023/05/08 06:10:02;;;;;;;6.40;5.90;;;;;;;;;;5032861;28;20395;-87
2023/05/08 06:12:28;;;;;;;6.10;5.68;;;;;;;;;;5034147;28;20429;-87
2023/05/08 06:14:54;;;;;;;7.03;6.35;;;;;;;;;;5033565;28;20395;-86
2023/05/08 06:17:21;;;;;;;6.57;6.07;;;;;;;;;;5034179;28;20379;-85
2023/05/08 06:19:52;;;;;;;7.53;6.97;;;;;;;;;;5033912;28;20409;-86
2023/05/08 06:22:20;;;;;;;7.38;6.70;;;;;;;;;;5034106;28;20401;-85
2023/05/08 06:24:46;;;;;;;6.00;5.60;;;;;;;;;;5032913;28;20744;-88
2023/05/08 06:27:12;;;;;;;7.07;6.50;;;;;;;;;;5032430;28;20390;-87
2023/05/08 06:29:38;;;;;;;6.60;6.00;;;;;;;;;;5033793;28;20391;-86
2023/05/08 06:32:04;;;;;;;8.35;7.55;;;;;;;;;;5033893;28;20387;-86
2023/05/08 06:34:30;;;;;;;8.75;7.95;;;;;;;;;;5033831;28;20422;-87
2023/05/08 06:36:56;;;;;;;8.85;8.15;;;;;;;;;;5033817;28;20473;-86
2023/05/08 06:39:22;;;;;;;8.48;7.68;;;;;;;;;;5033580;28;20442;-87
2023/05/08 06:41:48;;;;;;;9.25;8.35;;;;;;;;;;5033592;28;20432;-88
2023/05/08 06:44:15;;;;;;;9.38;8.57;;;;;;;;;;5033702;28;20383;-87
2023/05/08 06:46:41;;;;;;;10.52;9.65;;;;;;;;;;5033422;28;20383;-88
2023/05/08 06:49:07;;;;;;;9.55;8.85;;;;;;;;;;5033541;28;20395;-87
2023/05/08 06:51:34;;;;;;;10.20;9.43;;;;;;;;;;5033326;28;20466;-86
2023/05/08 06:54:00;;;;;;;9.98;9.07;;;;;;;;;;5031999;28;20430;-86
2023/05/08 06:56:26;;;;;;;10.32;9.52;;;;;;;;;;5033492;28;20394;-86
2023/05/08 06:58:52;;;;;;;10.82;9.82;;;;;;;;;;5031834;28;20399;-87
2023/05/08 07:01:18;;;;;;;9.45;8.85;;;;;;;;;;5031784;28;20752;-86
2023/05/08 07:03:45;;;;;;;9.50;8.80;;;;;;;;;;5032512;28;20391;-86
2023/05/08 07:06:11;;;;;;;8.37;7.70;;;;;;;;;;5030829;28;20478;-87
2023/05/08 07:08:37;;;;;;;8.60;7.90;;;;;;;;;;5031127;28;20391;-85
2023/05/08 07:11:03;;;;;;;8.45;7.85;;;;;;;;;;5033376;28;20395;-86
2023/05/08 07:13:29;;;;;;;7.95;7.35;;;;;;;;;;5032235;28;20386;-88
2023/05/08 07:15:55;;;;;;;8.20;7.60;;;;;;;;;;5031554;28;20387;-86
2023/05/08 07:18:21;;;;;;;7.97;7.37;;;;;;;;;;5031884;28;20414;-85
2023/05/08 07:20:47;;;;;;;9.50;8.80;;;;;;;;;;5032450;28;20386;-87
2023/05/08 07:23:13;;;;;;;9.45;8.60;;;;;;;;;;5032910;28;20383;-88
2023/05/08 07:25:39;;;;;;;8.40;7.70;;;;;;;;;;5032800;28;20386;-88
2023/05/08 07:28:06;;;;;;;8.38;7.68;;;;;;;;;;5031533;28;20454;-88
2023/05/08 07:30:32;;;;;;;7.60;7.00;;;;;;;;;;5032625;28;20375;-88
2023/05/08 07:32:58;;;;;;;7.60;6.93;;;;;;;;;;5030839;28;20384;-87
2023/05/08 07:35:25;;;;;;;7.20;6.60;;;;;;;;;;5031492;28;20629;-90
2023/05/08 07:37:51;;;;;;;8.90;8.10;;;;;;;;;;5029996;28;20418;-87
2023/05/08 07:40:17;;;;;;;8.60;7.90;;;;;;;;;;5029908;28;20403;-88
2023/05/08 07:42:44;;;;;;;8.65;7.95;;;;;;;;;;5031847;28;20936;-87
2023/05/08 07:45:11;;;;;;;9.30;8.50;;;;;;;;;;5030104;28;20398;-89
2023/05/08 07:47:37;;;;;;;9.07;8.27;;;;;;;;;;5030229;28;20418;-88
2023/05/08 07:50:03;;;;;;;9.00;8.20;;;;;;;;;;5030712;28;20792;-89
2023/05/08 07:52:30;;;;;;;8.95;8.25;;;;;;;;;;5031704;28;20411;-88
2023/05/08 07:54:57;;;;;;;7.85;7.25;;;;;;;;;;5029712;28;20379;-89
2023/05/08 07:57:23;;;;;;;7.82;7.20;;;;;;;;;;5031212;28;20383;-87
2023/05/08 07:59:49;;;;;;;7.90;7.20;;;;;;;;;;5030600;28;20628;-88
2023/05/08 08:02:15;;;;;;;7.55;6.95;;;;;;;;;;5030453;28;20470;-87
2023/05/08 08:04:42;;;;;;;7.90;7.20;;;;;;;;;;5032087;28;20522;-88
2023/05/08 08:07:08;;;;;;;7.80;7.20;;;;;;;;;;5031959;28;20865;-88
2023/05/08 08:09:34;;;;;;;7.20;6.60;;;;;;;;;;5030663;28;20444;-88
2023/05/08 08:12:00;;;;;;;7.17;6.63;;;;;;;;;;5031841;28;20401;-88
2023/05/08 08:14:26;;;;;;;6.50;6.03;;;;;;;;;;5030632;28;20390;-86
2023/05/08 08:16:52;;;;;;;6.80;6.20;;;;;;;;;;5030895;28;20383;-86
2023/05/08 08:19:18;;;;;;;6.43;5.90;;;;;;;;;;5031688;28;20411;-87
2023/05/08 08:21:45;;;;;;;5.72;5.25;;;;;;;;;;5031955;28;20639;-89
2023/05/08 08:24:11;;;;;;;5.80;5.32;;;;;;;;;;5031609;28;20879;-87
2023/05/08 08:26:37;;;;;;;6.40;5.90;;;;;;;;;;5031745;28;20466;-87
2023/05/08 08:29:03;;;;;;;5.00;4.60;;;;;;;;;;5031703;28;20387;-88
2023/05/08 08:31:29;;;;;;;5.65;5.15;;;;;;;;;;5030404;28;20392;-88
2023/05/08 08:33:56;;;;;;;5.43;4.72;;;;;;;;;;5030360;28;20383;-88
2023/05/08 08:36:22;;;;;;;5.40;5.00;;;;;;;;;;5031492;28;20792;-87
2023/05/08 08:38:48;;;;;;;4.25;3.83;;;;;;;;;;5030115;28;20407;-86
2023/05/08 08:41:14;;;;;;;5.10;4.63;;;;;;;;;;5030131;28;20449;-87
2023/05/08 08:43:42;;;;;;;4.80;4.50;;;;;;;;;;5030083;28;20386;-87
2023/05/08 08:46:13;;;;;;;4.33;4.03;;;;;;;;;;5029652;28;20441;-88
2023/05/08 08:48:43;;;;;;;4.40;4.00;;;;;;;;;;5029920;28;20398;-86
2023/05/08 08:51:12;;;;;;;4.78;4.38;;;;;;;;;;5031206;28;20740;-87
2023/05/08 08:53:42;;;;;;;4.10;3.80;;;;;;;;;;5031068;28;20418;-87
2023/05/08 08:56:08;;;;;;;3.87;3.67;;;;;;;;;;5031303;28;20395;-86
2023/05/08 08:58:41;;;;;;;4.20;3.90;;;;;;;;;;5029625;28;21324;-87
2023/05/08 09:01:07;;;;;;;3.83;3.50;;;;;;;;;;5031135;28;20379;-86
2023/05/08 09:03:33;;;;;;;3.90;3.60;;;;;;;;;;5029736;28;20730;-87
2023/05/08 09:06:02;;;;;;;5.00;4.60;;;;;;;;;;5031159;28;20378;-86
2023/05/08 09:08:28;;;;;;;7.53;5.57;;;;;;;;;;5031173;28;20379;-88
2023/05/08 09:10:55;;;;;;;4.88;4.50;;;;;;;;;;5029167;28;20399;-87
2023/05/08 09:13:21;;;;;;;5.43;4.65;;;;;;;;;;5031040;28;20385;-88
2023/05/08 09:15:49;;;;;;;4.38;4.07;;;;;;;;;;5030886;28;20892;-87
2023/05/08 09:18:15;;;;;;;4.22;3.83;;;;;;;;;;5029674;28;20426;-87
2023/05/08 09:20:41;;;;;;;3.88;3.58;;;;;;;;;;5030795;28;20379;-87
2023/05/08 09:23:07;;;;;;;4.60;4.20;;;;;;;;;;5030997;28;20394;-85
2023/05/08 09:25:47;;;;;;;4.00;3.70;;;;;;;;;;5031224;28;20379;-86
2023/05/08 09:28:20;;;;;;;4.70;4.30;;;;;;;;;;5029943;28;20392;-88
2023/05/08 09:30:54;;;;;;;4.40;3.90;;;;;;;;;;5031778;28;20489;-87
2023/05/08 09:33:20;;;;;;;4.65;4.25;;;;;;;;;;5035431;28;20387;-87
2023/05/08 09:35:47;;;;;;;3.70;3.47;;;;;;;;;;5028907;28;20379;-88
2023/05/08 09:38:36;;;;;;;3.63;3.33;;;;;;;;;;5017061;28;20445;-87
2023/05/08 09:41:07;;;;;;;3.58;3.30;;;;;;;;;;5026634;28;20387;-86
2023/05/08 09:43:33;;;;;;;4.30;3.90;;;;;;;;;;5034738;28;20383;-87
2023/05/08 09:46:21;;;;;;;4.00;3.67;;;;;;;;;;5033217;28;20466;-85
2023/05/08 09:48:48;;;;;;;3.80;3.60;;;;;;;;;;5037812;28;20874;-86
2023/05/08 09:51:14;;;;;;;3.70;3.40;;;;;;;;;;5031273;28;20395;-87
2023/05/08 09:53:40;;;;;;;3.30;3.00;;;;;;;;;;5032667;28;20422;-86
2023/05/08 09:56:06;;;;;;;4.68;4.28;;;;;;;;;;5034295;28;20805;-87
2023/05/08 09:58:39;;;;;;;4.25;3.90;;;;;;;;;;5033616;28;20457;-87
2023/05/08 10:01:05;;;;;;;3.70;3.40;;;;;;;;;;5034411;28;20944;-85
2023/05/08 10:03:48;;;;;;;3.40;3.20;;;;;;;;;;5038195;28;20460;-85
2023/05/08 10:06:14;;;;;;;3.17;2.97;;;;;;;;;;5034511;28;20379;-86
2023/05/08 10:08:40;;;;;;;3.05;2.85;;;;;;;;;;5027977;28;20393;-85
2023/05/08 10:11:14;;;;;;;3.03;2.33;;;;;;;;;;5032421;28;20443;-86
2023/05/08 10:13:40;;;;;;;2.90;2.60;;;;;;;;;;5030873;28;20423;-87
2023/05/08 10:16:07;;;;;;;2.47;2.28;;;;;;;;;;5034607;28;20833;-87
2023/05/08 10:18:35;;;;;;;2.15;1.80;;;;;;;;;;5032720;28;20434;-87
2023/05/08 10:21:05;;;;;;;4.38;2.83;;;;;;;;;;5032931;28;20884;-90
2023/05/08 10:23:33;;;;;;;3.20;2.88;;;;;;;;;;5033097;28;20401;-87
2023/05/08 10:26:06;;;;;;;2.78;2.40;;;;;;;;;;5032845;28;20445;-87
2023/05/08 10:28:36;;;;;;;2.25;2.05;;;;;;;;;;5032017;28;20379;-87
2023/05/08 10:31:04;;;;;;;2.92;2.60;;;;;;;;;;5031671;28;20860;-86
2023/05/08 10:33:30;;;;;;;2.20;2.00;;;;;;;;;;5032996;28;20448;-87
2023/05/08 10:35:57;;;;;;;2.42;2.05;;;;;;;;;;5033281;28;20391;-87
2023/05/08 10:38:23;;;;;;;2.20;1.88;;;;;;;;;;5032557;28;20438;-86
2023/05/08 10:40:52;;;;;;;2.00;1.90;;;;;;;;;;5032341;28;20971;-85
2023/05/08 10:43:18;;;;;;;2.20;2.00;;;;;;;;;;5033071;28;20387;-86
2023/05/08 10:45:44;;;;;;;3.03;2.10;;;;;;;;;;5032431;28;20470;-84
2023/05/08 10:48:19;;;;;;;2.20;1.98;;;;;;;;;;5030867;28;20395;-86
2023/05/08 10:51:02;;;;;;;2.17;2.00;;;;;;;;;;5032412;28;20468;-86
2023/05/08 10:53:31;;;;;;;2.45;2.25;;;;;;;;;;5031888;28;20952;-87
2023/05/08 10:55:57;;;;;;;1.65;1.55;;;;;;;;;;5033189;28;20379;-86
2023/05/08 10:58:23;;;;;;;1.90;1.80;;;;;;;;;;5032840;28;20457;-86
2023/05/08 11:00:55;;;;;;;1.70;1.58;;;;;;;;;;5032539;28;20423;-87
2023/05/08 11:03:24;;;;;;;2.10;1.90;;;;;;;;;;5032223;28;20470;-85
2023/05/08 11:05:52;;;;;;;1.90;1.33;;;;;;;;;;5031625;28;20388;-87
2023/05/08 11:08:19;;;;;;;1.40;1.30;;;;;;;;;;5032349;28;20394;-86
2023/05/08 11:11:00;;;;;;;1.50;1.30;;;;;;;;;;5029572;28;20403;-86
2023/05/08 11:13:32;;;;;;;2.63;1.38;;;;;;;;;;5031011;28;20456;-86
2023/05/08 11:15:58;;;;;;;1.80;1.40;;;;;;;;;;5032887;28;20478;-88
2023/05/08 11:18:24;;;;;;;1.77;1.40;;;;;;;;;;5031558;28;20478;-86
2023/05/08 11:20:57;;;;;;;1.50;1.20;;;;;;;;;;5032984;28;20482;-87
2023/05/08 11:23:24;;;;;;;1.70;1.58;;;;;;;;;;5033054;28;20398;-87
2023/05/08 11:26:01;;;;;;;1.70;1.10;;;;;;;;;;5032474;28;20387;-88
2023/05/08 11:28:27;;;;;;;1.27;1.17;;;;;;;;;;5031482;28;20383;-88
2023/05/08 11:30:55;;;;;;;1.13;1.02;;;;;;;;;;5030067;28;20383;-84
2023/05/08 11:33:21;;;;;;;2.65;1.10;;;;;;;;;;5031975;28;20383;-84
2023/05/08 11:35:47;;;;;;;1.83;1.30;;;;;;;;;;5032392;28;20394;-84
2023/05/08 11:38:28;;;;;;;1.42;1.10;;;;;;;;;;5032002;28;20495;-86
2023/05/08 11:40:56;;;;;;;1.90;1.20;;;;;;;;;;5032191;28;20387;-85
2023/05/08 11:43:22;;;;;;;2.35;1.10;;;;;;;;;;5032707;28;20386;-84
2023/05/08 11:45:48;;;;;;;1.20;1.02;;;;;;;;;;5032444;28;20371;-86
2023/05/08 11:48:16;;;;;;;1.15;1.05;;;;;;;;;;5032293;28;20477;-87
2023/05/08 11:50:42;;;;;;;3.08;1.83;;;;;;;;;;5031026;28;20485;-85
2023/05/08 11:53:08;;;;;;;1.58;0.93;;;;;;;;;;5031482;28;20419;-86
2023/05/08 11:55:34;;;;;;;1.27;0.80;;;;;;;;;;5031082;28;20780;-84
2023/05/08 11:58:00;;;;;;;1.10;0.70;;;;;;;;;;5031628;28;20476;-84
2023/05/08 12:00:26;;;;;;;0.80;0.80;;;;;;;;;;5031907;28;20387;-85
2023/05/08 12:02:52;;;;;;;1.10;1.00;;;;;;;;;;5031512;28;20415;-85
2023/05/08 12:05:26;;;;;;;1.23;1.00;;;;;;;;;;5031176;28;20383;-85
2023/05/08 12:07:52;;;;;;;1.30;1.10;;;;;;;;;;5031980;28;20496;-86
2023/05/08 12:10:18;;;;;;;1.85;1.35;;;;;;;;;;5030743;28;20441;-84
2023/05/08 12:12:45;;;;;;;2.95;1.50;;;;;;;;;;5031865;28;20399;-86
2023/05/08 12:15:12;;;;;;;3.30;1.15;;;;;;;;;;5031153;28;20387;-84
2023/05/08 12:17:38;;;;;;;3.45;1.05;;;;;;;;;;5029702;28;20448;-85
2023/05/08 12:20:15;;;;;;;1.73;1.20;;;;;;;;;;5020204;28;20407;-85
2023/05/08 12:22:41;;;;;;;5.50;1.10;;;;;;;;;;5030701;28;20379;-84
2023/05/08 12:25:08;;;;;;;3.15;1.10;;;;;;;;;;5030980;28;20474;-85
2023/05/08 12:27:37;;;;;;;2.10;1.90;;;;;;;;;;5030407;28;20453;-84
2023/05/08 12:30:07;;;;;;;1.70;1.00;;;;;;;;;;5031005;28;20387;-87
2023/05/08 12:32:35;;;;;;;2.20;0.80;;;;;;;;;;5030257;28;20391;-86
2023/05/08 12:35:01;;;;;;;2.70;1.15;;;;;;;;;;5030890;28;20395;-86
2023/05/08 12:37:28;;;;;;;3.63;1.40;;;;;;;;;;5031147;28;20475;-87
2023/05/08 12:39:54;;;;;;;2.60;1.00;;;;;;;;;;5030611;28;20414;-88
2023/05/08 12:42:20;;;;;;;3.15;1.30;;;;;;;;;;5030940;28;20466;-88
2023/05/08 12:44:52;;;;;;;2.47;1.70;;;;;;;;;;5031437;28;20371;-89
2023/05/08 12:47:19;;;;;;;2.78;1.38;;;;;;;;;;5031112;28;20386;-89
2023/05/08 12:49:48;;;;;;;2.97;1.60;;;;;;;;;;5031154;28;20525;-88
2023/05/08 12:52:14;;;;;;;3.40;1.40;;;;;;;;;;5031222;28;20415;-88
2023/05/08 12:54:45;;;;;;;3.77;1.20;;;;;;;;;;5031390;28;20393;-87
2023/05/08 12:57:12;;;;;;;3.50;1.48;;;;;;;;;;5031055;28;20387;-89
2023/05/08 12:59:38;;;;;;;2.60;2.15;;;;;;;;;;5029947;28;20403;-87
2023/05/08 13:02:04;;;;;;;2.70;1.70;;;;;;;;;;5030895;28;20385;-87
2023/05/08 13:04:35;;;;;;;2.25;1.92;;;;;;;;;;5031334;28;20935;-87
2023/05/08 13:07:01;;;;;;;2.58;1.42;;;;;;;;;;5030949;28;20378;-88
2023/05/08 13:09:27;;;;;;;1.97;1.30;;;;;;;;;;5031346;28;20860;-87
2023/05/08 13:11:53;;;;;;;2.10;0.90;;;;;;;;;;5031272;28;20383;-87
2023/05/08 13:14:19;;;;;;;3.00;1.02;;;;;;;;;;5031165;28;20948;-89
2023/05/08 13:16:50;;;;;;;0.70;0.70;;;;;;;;;;5029091;28;20398;-89
2023/05/08 13:19:16;;;;;;;1.60;0.70;;;;;;;;;;5030950;28;20411;-88
2023/05/08 13:21:46;;;;;;;2.72;0.70;;;;;;;;;;5031217;28;20391;-89
2023/05/08 13:24:13;;;;;;;1.17;0.50;;;;;;;;;;5031027;28;20375;-89
2023/05/08 13:26:39;;;;;;;1.30;0.70;;;;;;;;;;5030910;28;20798;-88
2023/05/08 13:29:05;;;;;;;1.20;0.90;;;;;;;;;;5030950;28;20470;-88
2023/05/08 13:31:31;;;;;;;1.10;1.00;;;;;;;;;;5033679;22;20494;-90
2023/05/08 13:33:57;;;;;;;1.85;1.33;;;;;;;;;;5011404;28;20384;-89
2023/05/08 13:36:23;;;;;;;2.90;1.42;;;;;;;;;;5011177;28;20381;-89
2023/05/08 13:38:50;;;;;;;2.50;1.20;;;;;;;;;;5010575;28;20475;-91
2023/05/08 13:41:16;;;;;;;2.35;1.10;;;;;;;;;;5011078;28;20866;-89
2023/05/08 13:43:45;;;;;;;1.23;1.00;;;;;;;;;;5011375;28;20393;-90
2023/05/08 13:46:11;;;;;;;1.73;1.48;;;;;;;;;;5011076;28;20392;-87
2023/05/08 13:48:39;;;;;;;4.32;2.22;;;;;;;;;;5010870;28;20384;-88
2023/05/08 13:51:05;;;;;;;2.30;1.92;;;;;;;;;;5010816;28;20389;-90
2023/05/08 13:53:34;;;;;;;2.65;1.80;;;;;;;;;;5010744;28;20460;-88
2023/05/08 13:56:00;;;;;;;2.97;1.60;;;;;;;;;;5011360;28;20389;-88
2023/05/08 13:58:26;;;;;;;1.87;1.33;;;;;;;;;;5009509;28;20782;-88
2023/05/08 14:00:52;;;;;;;1.33;1.10;;;;;;;;;;5011298;28;20384;-88
2023/05/08 14:03:21;;;;;;;2.40;2.20;;;;;;;;;;5011545;28;20377;-88
2023/05/08 14:05:47;;;;;;;2.70;2.30;;;;;;;;;;5009613;28;20726;-90
2023/05/08 14:08:13;;;;;;;2.38;1.70;;;;;;;;;;5009658;28;20392;-89
2023/05/08 14:10:39;;;;;;;2.17;1.70;;;;;;;;;;5009515;28;20468;-88
2023/05/08 14:13:05;;;;;;;1.98;1.60;;;;;;;;;;5011110;28;20862;-88
2023/05/08 14:15:33;;;;;;;2.00;1.80;;;;;;;;;;5010963;28;20416;-90
2023/05/08 14:17:59;;;;;;;2.05;1.67;;;;;;;;;;5010681;28;20794;-90
2023/05/08 14:20:25;;;;;;;3.15;2.83;;;;;;;;;;5010979;28;20419;-88
2023/05/08 14:22:51;;;;;;;8.98;8.27;;;;;;;;;;5011346;28;20381;-90
2023/05/08 14:25:17;;;;;;;1.80;1.70;;;;;;;;;;5010992;28;20882;-89
2023/05/08 14:27:43;;;;;;;1.50;1.40;;;;;;;;;;5012693;28;20396;-90
2023/05/08 14:30:09;;;;;;;1.17;1.08;;;;;;;;;;5014138;28;20862;-89
2023/05/08 14:32:35;;;;;;;1.97;0.97;;;;;;;;;;5014234;28;20723;-90
2023/05/08 14:35:01;;;;;;;1.23;1.10;;;;;;;;;;5014324;28;20389;-89
2023/05/08 14:37:27;;;;;;;1.38;1.20;;;;;;;;;;5014001;28;20420;-90
2023/05/08 14:39:54;;;;;;;1.30;1.20;;;;;;;;;;5012699;28;20424;-89
2023/05/08 14:42:20;;;;;;;1.20;1.10;;;;;;;;;;5014229;28;20447;-89
2023/05/08 14:44:47;;;;;;;1.70;1.30;;;;;;;;;;5013207;28;20777;-89
2023/05/08 14:47:13;;;;;;;1.30;1.20;;;;;;;;;;5013970;28;20458;-90